Sunday, November 18, 2018, 2:23 PM GMT
Back to Local

CWJO, Jonquiere Automated Reporting Station

Location: , , Canada Lat: 48.417
Local Time: 2:23 PM GMT (14:23 GMT) Lon: -71.217
Time Zone: GMT Elev: 436 ft

Show me the last for .
Show Coded

Time T Td Feel RH Dir Speed Gust Alt SLP Vis Weather Sky Remarks
2018-11-18 13:00 12 6 2 77 350° 6 - - 30.34 0 None
2018-11-18 12:00 12 5 2 71 330° 7 - - 30.33 0 None
2018-11-18 11:00 13 4 2 68 330° 7 - - 30.31 0 None
2018-11-18 10:00 13 8 2 78 300° 8 - - 30.29 0 None
2018-11-18 09:00 13 6 1 72 300° 10 - - 30.27 0 None
2018-11-18 08:00 14 6 -3 70 300° 12 18 - 30.27 0 Peak wind: 20 mph (18 kts) from 290° at 39 min
2018-11-18 07:00 14 8 -4 74 310° 14 23 - 30.25 0 Peak wind: 24 mph (21 kts) from 290° at 06 min
2018-11-18 06:00 17 8 -1 68 300° 14 22 - 30.23 0 Peak wind: 26 mph (23 kts) from 310° at 34 min
2018-11-18 05:00 17 10 1 72 290° 14 21 - 30.20 0 Peak wind: 24 mph (21 kts) from 300° at 23 min
2018-11-18 04:00 19 11 2 73 310° 13 20 - 30.17 0 Peak wind: 26 mph (23 kts) from 300° at 34 min
2018-11-18 03:00 20 15 4 79 300° 15 23 - 30.14 0 Peak wind: 26 mph (23 kts) from 320° at 01 min
2018-11-18 02:00 22 13 5 69 300° 16 25 - 30.12 0 Peak wind: 25 mph (22 kts) from 280° at 45 min
2018-11-18 01:00 23 16 8 71 300° 15 22 - 30.09 0 Peak wind: 26 mph (23 kts) from 300° at 34 min
2018-11-18 00:00 24 17 10 73 290° 14 20 - 30.06 0 Peak wind: 25 mph (22 kts) from 280° at 22 min
2018-11-17 23:00 25 18 11 73 290° 14 21 - 30.02 0 Peak wind: 21 mph (19 kts) from 260° at 17 min
2018-11-17 22:00 26 18 11 72 270° 15 23 - 30.00 0 Peak wind: 25 mph (22 kts) from 290° at 16 min
2018-11-17 21:00 26 19 13 72 270° 13 18 - 29.96 0 Peak wind: 26 mph (23 kts) from 270° at 26 min
2018-11-17 20:00 27 23 13 84 280° 15 22 - 29.94 0 Peak wind: 23 mph (20 kts) from 290° at 18 min
2018-11-17 19:00 27 25 13 90 300° 15 21 - 29.90 0 Peak wind: 25 mph (22 kts) from 320° at 39 min
1-hr Precip Total: 0.04"
2018-11-17 18:00 29 26 15 88 280° 14 22 - 29.86 0 Peak wind: 21 mph (19 kts) from 290° at 58 min
2018-11-17 17:00 29 25 17 86 270° 12 17 - 29.84 0 Peak wind: 21 mph (19 kts) from 270° at 21 min
2018-11-17 16:00 28 25 16 86 260° 12 18 - 29.83 0 Peak wind: 19 mph (17 kts) from 260° at 13 min
2018-11-17 15:00 28 23 15 82 260° 12 17 - 29.83 0 None

Support USWX by starting your Amazon purchase here.